createdAt,value
2019-03-10T00:01:20.766Z,85.74
2019-03-10T00:03:49.443Z,85.81
2019-03-10T00:06:17.970Z,86.15
2019-03-10T00:08:46.413Z,86.44
2019-03-10T00:11:14.994Z,87.05
2019-03-10T00:13:43.489Z,87.51
2019-03-10T00:16:12.153Z,87.41
2019-03-10T00:18:40.838Z,87.20
2019-03-10T00:21:09.344Z,86.81
2019-03-10T00:23:38.181Z,86.30
2019-03-10T00:26:06.578Z,86.49
2019-03-10T00:28:35.054Z,87.02
2019-03-10T00:31:03.551Z,87.80
2019-03-10T00:33:31.946Z,87.90
2019-03-10T00:36:00.342Z,87.75
2019-03-10T00:38:31.842Z,87.76
2019-03-10T00:41:11.904Z,87.46
2019-03-10T00:44:12.109Z,87.68
2019-03-10T00:47:04.834Z,87.96
2019-03-10T00:50:04.961Z,87.82
2019-03-10T00:52:36.413Z,88.49
2019-03-10T00:55:05.345Z,88.37
2019-03-10T00:57:33.820Z,87.94
2019-03-10T01:00:02.207Z,87.61
2019-03-10T01:02:30.606Z,87.29
2019-03-10T01:04:59.054Z,86.99
2019-03-10T01:07:27.455Z,86.69
2019-03-10T01:09:55.839Z,86.66
2019-03-10T01:12:24.233Z,86.62
2019-03-10T01:14:52.623Z,86.38
2019-03-10T01:17:22.157Z,86.28
2019-03-10T01:19:50.883Z,85.94
2019-03-10T01:22:19.292Z,86.26
2019-03-10T01:24:47.684Z,86.34
2019-03-10T01:27:16.085Z,86.01
2019-03-10T01:29:44.508Z,85.93
2019-03-10T01:32:38.572Z,85.63
2019-03-10T01:35:10.011Z,85.53
2019-03-10T01:37:38.419Z,85.36
2019-03-10T01:40:07.555Z,85.54
2019-03-10T01:42:35.957Z,85.85
2019-03-10T01:45:06.395Z,85.94
2019-03-10T01:47:34.794Z,85.94
2019-03-10T01:50:03.350Z,85.77
2019-03-10T01:52:31.745Z,85.32
2019-03-10T01:55:00.339Z,85.61
2019-03-10T01:57:28.821Z,85.51
2019-03-10T01:59:57.221Z,85.31
2019-03-10T02:02:26.092Z,85.46
2019-03-10T02:04:55.063Z,85.62
2019-03-10T02:07:23.465Z,84.76
2019-03-10T02:09:51.922Z,84.64
2019-03-10T02:12:20.330Z,84.47
2019-03-10T02:14:48.717Z,84.56
2019-03-10T02:17:17.361Z,84.40
2019-03-10T02:19:45.822Z,84.42
2019-03-10T02:22:14.221Z,84.46
2019-03-10T02:24:42.703Z,84.17
2019-03-10T02:27:11.101Z,84.23
2019-03-10T02:29:39.489Z,84.58
2019-03-10T02:32:07.887Z,85.15
2019-03-10T02:34:36.283Z,84.82
2019-03-10T02:37:04.688Z,84.56
2019-03-10T02:39:33.072Z,84.58
2019-03-10T02:42:01.474Z,84.37
2019-03-10T02:44:29.871Z,84.14
2019-03-10T02:46:58.259Z,83.96
2019-03-10T02:49:26.662Z,84.31
2019-03-10T02:51:55.079Z,84.06
2019-03-10T02:54:23.473Z,84.18
2019-03-10T02:56:51.859Z,84.36
2019-03-10T02:59:20.257Z,84.45
2019-03-10T03:01:48.653Z,84.51
2019-03-10T03:04:17.060Z,84.06
2019-03-10T03:06:45.460Z,83.87
2019-03-10T03:09:13.861Z,83.82
2019-03-10T03:11:42.252Z,83.78
2019-03-10T03:14:10.651Z,83.97
2019-03-10T03:16:39.044Z,83.85
2019-03-10T03:19:07.445Z,83.90
2019-03-10T03:21:43.137Z,83.57
2019-03-10T03:24:06.067Z,83.73
2019-03-10T03:26:34.456Z,83.50
2019-03-10T03:29:02.872Z,83.67
2019-03-10T03:31:31.250Z,83.70
2019-03-10T03:33:59.720Z,82.93
2019-03-10T03:36:30.668Z,82.69
2019-03-10T03:39:02.126Z,83.19
2019-03-10T03:41:30.512Z,83.12
2019-03-10T03:43:58.915Z,83.99
2019-03-10T03:46:27.396Z,83.95
2019-03-10T03:48:55.886Z,83.59
2019-03-10T03:51:24.356Z,83.47
2019-03-10T03:53:52.747Z,84.10
2019-03-10T03:56:21.127Z,83.87
2019-03-10T03:58:49.529Z,83.22
2019-03-10T04:01:31.541Z,83.10
2019-03-10T04:03:59.942Z,83.11
2019-03-10T04:06:28.337Z,82.51
2019-03-10T04:08:56.736Z,82.20
2019-03-10T04:11:25.127Z,82.03
2019-03-10T04:13:53.546Z,82.16
2019-03-10T04:16:21.923Z,82.32
2019-03-10T04:18:50.324Z,82.34
2019-03-10T04:21:18.716Z,82.93
2019-03-10T04:23:47.131Z,82.92
2019-03-10T04:26:15.540Z,82.75
2019-03-10T04:28:43.920Z,82.69
2019-03-10T04:31:12.321Z,82.34
2019-03-10T04:33:40.719Z,82.47
2019-03-10T04:36:09.118Z,82.20
2019-03-10T04:38:37.516Z,81.87
2019-03-10T04:41:05.926Z,81.47
2019-03-10T04:43:34.328Z,81.72
2019-03-10T04:46:02.726Z,81.45
2019-03-10T04:48:31.124Z,81.09
2019-03-10T04:50:59.528Z,81.15
2019-03-10T04:53:27.921Z,80.93
2019-03-10T04:56:03.654Z,81.78
2019-03-10T04:58:33.687Z,81.78
2019-03-10T05:01:02.093Z,82.50
2019-03-10T05:03:30.482Z,82.64
2019-03-10T05:05:58.881Z,82.41
2019-03-10T05:08:27.278Z,82.54
2019-03-10T05:10:55.677Z,81.91
2019-03-10T05:13:24.083Z,81.92
2019-03-10T05:15:52.471Z,81.11
2019-03-10T05:18:20.871Z,81.31
2019-03-10T05:21:29.184Z,80.91
2019-03-10T05:24:37.495Z,80.31
2019-03-10T05:27:05.889Z,79.73
2019-03-10T05:29:53.408Z,78.78
2019-03-10T05:32:21.799Z,78.64
2019-03-10T05:34:50.198Z,78.94
2019-03-10T05:37:18.590Z,79.72
2019-03-10T05:39:47.090Z,79.50
2019-03-10T05:42:15.483Z,78.89
2019-03-10T05:44:43.966Z,78.50
2019-03-10T05:47:12.626Z,77.81
2019-03-10T05:49:41.012Z,77.07
2019-03-10T05:52:09.424Z,76.91
2019-03-10T05:54:37.825Z,76.58
2019-03-10T05:57:06.222Z,76.16
2019-03-10T05:59:34.618Z,76.02
2019-03-10T06:02:03.019Z,76.29
2019-03-10T06:04:31.421Z,76.42
2019-03-10T06:06:59.815Z,76.83
2019-03-10T06:09:28.207Z,77.35
2019-03-10T06:11:56.655Z,76.77
2019-03-10T06:14:25.056Z,76.30
2019-03-10T06:16:53.459Z,76.13
2019-03-10T06:19:21.846Z,77.04
2019-03-10T06:21:50.252Z,77.44
2019-03-10T06:24:18.640Z,77.37
2019-03-10T06:26:47.133Z,76.97
2019-03-10T06:29:15.599Z,77.34
2019-03-10T06:31:44.009Z,76.56
2019-03-10T06:34:12.450Z,75.28
2019-03-10T06:36:40.844Z,73.99
2019-03-10T06:39:09.316Z,73.50
2019-03-10T06:41:37.729Z,73.37
2019-03-10T06:44:06.121Z,73.14
2019-03-10T06:46:34.521Z,72.77
2019-03-10T06:49:02.915Z,72.76
2019-03-10T06:51:31.309Z,73.16
2019-03-10T06:53:59.703Z,73.82
2019-03-10T06:56:28.102Z,73.36
2019-03-10T06:58:56.504Z,72.88
2019-03-10T07:01:24.894Z,72.59
2019-03-10T07:03:53.283Z,72.49
2019-03-10T07:06:21.732Z,73.06
2019-03-10T07:08:50.076Z,73.03
2019-03-10T07:11:18.504Z,73.30
2019-03-10T07:13:46.895Z,71.04
2019-03-10T07:16:15.300Z,70.08
2019-03-10T07:18:43.707Z,69.28
2019-03-10T07:21:12.134Z,68.29
2019-03-10T07:23:40.538Z,67.17
2019-03-10T07:26:08.933Z,67.20
2019-03-10T07:28:39.036Z,67.37
2019-03-10T07:31:14.750Z,66.00
2019-03-10T07:33:44.793Z,65.32
2019-03-10T07:36:20.550Z,65.79
2019-03-10T07:39:06.676Z,66.36
2019-03-10T07:41:39.620Z,66.57
2019-03-10T07:44:12.610Z,66.55
2019-03-10T07:46:42.649Z,66.62
2019-03-10T07:49:24.796Z,67.64
2019-03-10T07:51:57.531Z,67.50
2019-03-10T07:54:27.550Z,66.00
2019-03-10T07:57:03.759Z,62.85
2019-03-10T07:59:34.112Z,62.17
2019-03-10T08:02:04.147Z,61.54
2019-03-10T08:04:34.193Z,61.81
2019-03-10T08:07:04.228Z,60.52
2019-03-10T08:09:34.279Z,60.79
2019-03-10T08:12:06.856Z,59.68
2019-03-10T08:14:43.329Z,58.30
2019-03-10T08:17:16.105Z,56.82
2019-03-10T08:19:54.929Z,58.16
2019-03-10T08:22:24.996Z,58.59
2019-03-10T08:25:03.785Z,59.38
2019-03-10T08:27:33.838Z,59.16
2019-03-10T08:30:03.872Z,61.54
2019-03-10T08:32:50.315Z,61.61
2019-03-10T08:35:20.348Z,62.39
2019-03-10T08:37:59.351Z,64.20
2019-03-10T08:40:29.387Z,64.00
2019-03-10T08:43:05.229Z,64.42
2019-03-10T08:45:51.435Z,64.99
2019-03-10T08:48:24.446Z,65.93
2019-03-10T08:51:10.824Z,65.94
2019-03-10T08:53:47.002Z,66.06
2019-03-10T08:56:23.161Z,67.35
2019-03-10T08:58:53.212Z,66.98
2019-03-10T09:01:39.142Z,68.03
2019-03-10T09:04:27.175Z,68.48
2019-03-10T09:07:09.155Z,68.56
2019-03-10T09:09:48.101Z,69.16
2019-03-10T09:12:33.439Z,69.06
2019-03-10T09:15:15.689Z,69.38
2019-03-10T09:18:01.916Z,68.58
2019-03-10T09:20:34.674Z,68.64
2019-03-10T09:23:07.111Z,69.23
2019-03-10T09:25:43.062Z,69.29
2019-03-10T09:28:13.096Z,68.77
2019-03-10T09:30:43.143Z,69.29
2019-03-10T09:33:25.380Z,69.79
2019-03-10T09:36:07.729Z,71.03
2019-03-10T09:38:40.656Z,70.11
2019-03-10T09:41:19.563Z,70.11
2019-03-10T09:44:08.027Z,69.90
2019-03-10T09:46:41.135Z,69.03
2019-03-10T09:49:11.178Z,69.53
2019-03-10T09:51:41.381Z,69.54
2019-03-10T09:54:27.784Z,70.50
2019-03-10T09:56:57.813Z,70.74
2019-03-10T09:59:44.303Z,70.55
2019-03-10T10:02:29.583Z,71.74
2019-03-10T10:04:59.632Z,71.94
2019-03-10T10:07:32.375Z,73.30
2019-03-10T10:10:18.521Z,73.57
2019-03-10T10:12:48.554Z,73.90
2019-03-10T10:15:24.582Z,74.94
2019-03-10T10:17:54.616Z,74.73
2019-03-10T10:20:26.734Z,73.85
2019-03-10T10:22:59.348Z,72.23
2019-03-10T10:25:41.528Z,71.20
2019-03-10T10:28:17.612Z,71.29
2019-03-10T10:30:47.654Z,71.09
2019-03-10T10:33:20.349Z,70.60
2019-03-10T10:36:02.295Z,70.43
2019-03-10T10:38:44.538Z,69.75
2019-03-10T10:41:17.304Z,69.82
2019-03-10T10:43:47.339Z,69.11
2019-03-10T10:46:17.382Z,68.37
2019-03-10T10:48:47.433Z,69.16
2019-03-10T10:51:23.429Z,69.48
2019-03-10T10:54:09.577Z,70.57
2019-03-10T10:56:42.688Z,70.15
2019-03-10T10:59:24.540Z,70.32
2019-03-10T11:01:54.580Z,71.63
2019-03-10T11:04:24.627Z,72.09
2019-03-10T11:06:54.639Z,71.73
2019-03-10T11:09:24.689Z,72.06
2019-03-10T11:11:54.713Z,72.38
2019-03-10T11:14:30.453Z,72.62
2019-03-10T11:17:06.274Z,72.53
2019-03-10T11:19:36.322Z,72.48
2019-03-10T11:22:09.302Z,72.47
2019-03-10T11:24:47.890Z,72.90
2019-03-10T11:27:27.175Z,73.71
2019-03-10T11:29:57.195Z,73.76
2019-03-10T11:32:30.204Z,72.77
2019-03-10T11:35:15.480Z,71.70
2019-03-10T11:38:03.010Z,73.29
2019-03-10T11:40:50.506Z,72.30
2019-03-10T11:46:32.855Z,68.93
2019-03-10T11:52:09.444Z,66.20
2019-03-10T11:54:56.960Z,66.50
2019-03-10T11:57:44.485Z,64.48
2019-03-10T12:00:52.789Z,63.87
2019-03-10T12:03:40.390Z,64.38
2019-03-10T12:06:27.928Z,63.87
2019-03-10T12:09:15.443Z,63.34
2019-03-10T12:12:23.924Z,63.88
2019-03-10T12:14:52.315Z,66.41
2019-03-10T12:20:53.641Z,73.75
2019-03-10T12:23:22.037Z,75.46
2019-03-10T12:26:09.676Z,78.47
2019-03-10T12:31:12.662Z,81.21
2019-03-10T12:34:00.398Z,82.74
2019-03-10T12:39:35.348Z,81.52
2019-03-10T12:42:03.751Z,81.18
2019-03-10T12:44:32.140Z,80.92
2019-03-10T12:47:19.653Z,81.53
2019-03-10T12:49:48.037Z,81.83
2019-03-10T12:54:50.012Z,82.14
2019-03-10T12:57:37.652Z,82.16
2019-03-10T13:00:25.386Z,82.59
2019-03-10T13:02:53.782Z,82.42
2019-03-10T13:05:41.416Z,82.91
2019-03-10T13:08:28.931Z,83.96
2019-03-10T13:11:16.571Z,84.08
2019-03-10T13:13:44.970Z,85.18
2019-03-10T13:21:36.430Z,85.66
2019-03-10T13:24:24.057Z,85.07
2019-03-10T13:26:52.439Z,84.56
2019-03-10T13:29:20.842Z,85.00
2019-03-10T13:32:08.549Z,85.12
2019-03-10T13:37:11.771Z,84.14
2019-03-10T13:39:59.282Z,84.97
2019-03-10T13:42:27.677Z,85.48
2019-03-10T13:44:56.076Z,86.39
2019-03-10T13:47:43.750Z,86.26
2019-03-10T13:53:37.995Z,81.05
2019-03-10T13:56:25.634Z,81.82
2019-03-10T13:58:54.034Z,82.15
2019-03-10T14:01:41.805Z,82.17
2019-03-10T14:04:10.285Z,82.45
2019-03-10T14:09:26.182Z,82.25
2019-03-10T14:11:54.569Z,81.88
2019-03-10T14:15:02.878Z,82.47
2019-03-10T14:17:50.381Z,82.50
2019-03-10T14:20:37.903Z,82.34
2019-03-10T14:23:06.299Z,83.34
2019-03-10T14:25:53.933Z,82.86
2019-03-10T14:28:41.577Z,82.42
2019-03-10T14:31:09.972Z,82.26
2019-03-10T14:33:57.619Z,82.33
2019-03-10T14:36:45.130Z,81.91
2019-03-10T14:39:32.780Z,82.52
2019-03-10T14:42:01.166Z,83.99
2019-03-10T14:44:48.692Z,84.65
2019-03-10T14:47:19.377Z,84.10
2019-03-10T14:49:47.201Z,83.60
2019-03-10T14:52:34.851Z,83.08
2019-03-10T14:57:57.363Z,82.47
2019-03-10T15:01:05.665Z,84.55
2019-03-10T15:03:53.315Z,85.17
2019-03-10T15:06:21.715Z,86.04
2019-03-10T15:09:09.237Z,86.39
2019-03-10T15:14:25.082Z,86.92
2019-03-10T15:16:53.483Z,87.94
2019-03-10T15:19:21.881Z,89.74
2019-03-10T15:22:09.612Z,90.18
2019-03-10T15:24:38.009Z,89.79
2019-03-10T15:27:25.648Z,88.43
2019-03-10T15:29:54.049Z,89.64
2019-03-10T15:32:41.687Z,89.92
2019-03-10T15:35:49.998Z,90.03
2019-03-10T15:38:37.635Z,90.61
2019-03-10T15:41:18.243Z,92.30
2019-03-10T15:44:05.904Z,93.57
2019-03-10T15:49:21.735Z,93.49
2019-03-10T15:52:09.241Z,93.77
2019-03-10T15:54:37.906Z,94.25
2019-03-10T15:57:25.547Z,93.85
2019-03-10T15:59:53.948Z,93.08
2019-03-10T16:02:41.587Z,92.11
2019-03-10T16:05:49.902Z,91.93
2019-03-10T16:08:18.297Z,90.78
2019-03-10T16:11:05.829Z,91.07
2019-03-10T16:13:34.218Z,90.42
2019-03-10T16:16:02.626Z,90.79
2019-03-10T16:18:31.014Z,91.85
2019-03-10T16:23:33.087Z,92.73
2019-03-10T16:26:20.597Z,92.37
2019-03-10T16:28:48.996Z,92.34
2019-03-10T16:31:17.400Z,92.16
2019-03-10T16:33:45.784Z,92.33
2019-03-10T16:36:33.451Z,92.01
2019-03-10T16:39:21.087Z,91.18
2019-03-10T16:42:08.601Z,89.86
2019-03-10T16:44:56.339Z,89.48
2019-03-10T16:47:24.707Z,89.15
2019-03-10T16:50:12.393Z,88.98
2019-03-10T16:53:00.038Z,88.93
2019-03-10T16:55:28.696Z,89.13
2019-03-10T17:01:03.777Z,89.08
2019-03-10T17:03:51.415Z,89.00
2019-03-10T17:06:19.808Z,89.68
2019-03-10T17:08:48.213Z,90.87
2019-03-10T17:11:35.858Z,90.89
2019-03-10T17:14:44.156Z,91.25
2019-03-10T17:17:31.806Z,91.93
2019-03-10T17:20:19.435Z,92.90
2019-03-10T17:23:07.083Z,93.89
2019-03-10T17:28:22.914Z,93.61
2019-03-10T17:33:25.907Z,94.27
2019-03-10T17:36:13.554Z,93.96
2019-03-10T17:38:41.946Z,93.46
2019-03-10T17:41:29.464Z,93.30
2019-03-10T17:43:57.860Z,93.02
2019-03-10T17:48:59.951Z,90.96
2019-03-10T17:51:47.462Z,90.40
2019-03-10T17:54:35.096Z,89.63
2019-03-10T17:57:03.491Z,88.81
2019-03-10T17:59:31.879Z,88.99
2019-03-10T18:02:19.532Z,89.04
2019-03-10T18:04:47.926Z,88.46
2019-03-10T18:07:16.321Z,89.03
2019-03-10T18:10:03.955Z,89.57
2019-03-10T18:12:32.344Z,90.01
2019-03-10T18:15:19.850Z,90.62
2019-03-10T18:18:07.552Z,90.68
2019-03-10T18:20:35.943Z,90.43
2019-03-10T18:23:23.465Z,90.60
2019-03-10T18:26:11.189Z,90.71
2019-03-10T18:28:58.839Z,91.76
2019-03-10T18:31:27.307Z,91.99
2019-03-10T18:33:55.719Z,92.63
2019-03-10T18:36:24.112Z,93.18
2019-03-10T18:41:39.949Z,93.34
2019-03-10T18:44:08.334Z,93.84
2019-03-10T18:46:36.733Z,94.56
2019-03-10T18:49:24.367Z,95.92
2019-03-10T18:52:12.011Z,96.62
2019-03-10T18:54:40.396Z,97.01
2019-03-10T18:57:28.038Z,97.47
2019-03-10T19:03:03.011Z,97.72
2019-03-10T19:05:31.379Z,97.66
2019-03-10T19:07:59.860Z,98.00
2019-03-10T19:10:28.249Z,97.96
2019-03-10T19:13:15.895Z,97.50
2019-03-10T19:15:44.280Z,97.43
2019-03-10T19:18:32.035Z,97.22
2019-03-10T19:21:19.540Z,96.58
2019-03-10T19:23:47.949Z,96.19
2019-03-10T19:26:35.582Z,96.18
2019-03-10T19:29:03.980Z,96.27
2019-03-10T19:31:51.629Z,96.13
2019-03-10T19:34:39.272Z,96.32
2019-03-10T19:39:55.103Z,95.29
2019-03-10T19:42:42.640Z,94.54
2019-03-10T19:48:17.817Z,95.63
2019-03-10T19:50:46.201Z,96.01
2019-03-10T19:53:33.714Z,95.88
2019-03-10T19:56:03.971Z,96.39
2019-03-10T19:58:51.337Z,96.64
2019-03-10T20:01:19.732Z,96.59
2019-03-10T20:06:22.720Z,96.42
2019-03-10T20:09:10.389Z,96.55
2019-03-10T20:11:38.781Z,96.79
2019-03-10T20:14:26.430Z,96.96
2019-03-10T20:16:54.827Z,97.28
2019-03-10T20:19:23.237Z,97.31
2019-03-10T20:21:51.634Z,96.88
2019-03-10T20:24:39.290Z,96.60
2019-03-10T20:27:07.688Z,96.44
2019-03-10T20:29:55.345Z,96.78
2019-03-10T20:32:23.744Z,96.76
2019-03-10T20:35:11.396Z,96.95
2019-03-10T20:37:39.786Z,96.84
2019-03-10T20:40:28.010Z,96.89
2019-03-10T20:42:56.410Z,96.71
2019-03-10T20:45:25.011Z,96.21
2019-03-10T20:47:56.594Z,96.16
2019-03-10T20:50:25.047Z,96.02
2019-03-10T20:52:53.450Z,96.72
2019-03-10T20:55:21.837Z,97.03
2019-03-10T20:57:50.226Z,97.20
2019-03-10T21:00:37.966Z,97.28
2019-03-10T21:11:21.533Z,96.68
2019-03-10T21:13:49.930Z,96.83
2019-03-10T21:16:39.574Z,96.77
2019-03-10T21:19:08.009Z,96.40
2019-03-10T21:21:55.514Z,96.01
2019-03-10T21:24:23.918Z,96.58
2019-03-10T21:27:11.552Z,96.38
2019-03-10T21:29:59.197Z,96.01
2019-03-10T21:32:27.587Z,95.40
2019-03-10T21:35:18.422Z,94.56
2019-03-10T21:37:46.813Z,94.83
2019-03-10T21:40:55.135Z,94.39
2019-03-10T21:43:23.520Z,94.64
2019-03-10T21:48:33.589Z,94.67
2019-03-10T21:51:21.238Z,94.16
2019-03-10T21:53:49.628Z,94.06
2019-03-10T21:56:18.025Z,94.03
2019-03-10T21:59:05.533Z,93.90
2019-03-10T22:01:33.937Z,93.58
2019-03-10T22:04:02.321Z,93.35
2019-03-10T22:07:10.631Z,93.45
2019-03-10T22:10:27.034Z,93.43
2019-03-10T22:13:28.971Z,93.70
2019-03-10T22:15:57.385Z,94.14
2019-03-10T22:18:45.016Z,94.37
2019-03-10T22:24:07.014Z,94.47
2019-03-10T22:26:35.414Z,94.10
2019-03-10T22:29:26.023Z,93.87
2019-03-10T22:31:54.426Z,93.90
2019-03-10T22:34:22.821Z,94.34
2019-03-10T22:37:10.326Z,94.51
2019-03-10T22:44:59.877Z,95.49
2019-03-10T22:47:47.509Z,95.60
2019-03-10T22:50:55.822Z,95.45
2019-03-10T22:53:24.206Z,95.55
2019-03-10T22:56:11.946Z,95.89
2019-03-10T22:58:59.580Z,95.29
2019-03-10T23:01:47.228Z,94.91
2019-03-10T23:04:15.618Z,95.04
2019-03-10T23:06:44.018Z,95.28
2019-03-10T23:09:12.404Z,95.05
2019-03-10T23:11:40.810Z,94.95
2019-03-10T23:14:09.203Z,94.96
2019-03-10T23:19:31.198Z,95.16
2019-03-10T23:21:59.598Z,95.11
2019-03-10T23:24:47.332Z,94.34
2019-03-10T23:30:49.364Z,93.67
2019-03-10T23:33:17.754Z,94.13
2019-03-10T23:36:05.270Z,94.31
2019-03-10T23:38:33.664Z,94.19
2019-03-10T23:41:13.726Z,94.28
2019-03-10T23:43:42.120Z,94.69
2019-03-10T23:46:10.513Z,95.03
2019-03-10T23:48:58.254Z,95.46
2019-03-10T23:51:26.654Z,95.99
2019-03-10T23:54:14.353Z,96.22
2019-03-10T23:56:42.686Z,96.02
2019-03-10T23:59:30.414Z,96.16
